createdAt,value
2023-02-03T00:00:16.493Z,82.65
2023-02-03T00:01:17.272Z,82.68
2023-02-03T00:02:16.586Z,82.79
2023-02-03T00:03:16.544Z,83.20
2023-02-03T00:04:16.476Z,83.10
2023-02-03T00:05:17.004Z,84.13
2023-02-03T00:06:16.434Z,84.03
2023-02-03T00:07:16.434Z,84.03
2023-02-03T00:08:16.425Z,84.13
2023-02-03T00:09:16.419Z,83.10
2023-02-03T00:10:16.414Z,83.41
2023-02-03T00:11:16.397Z,83.41
2023-02-03T00:12:16.377Z,83.93
2023-02-03T00:13:16.370Z,83.51
2023-02-03T00:14:16.345Z,84.03
2023-02-03T00:15:16.346Z,84.96
2023-02-03T00:16:16.359Z,84.75
2023-02-03T00:17:17.137Z,84.65
2023-02-03T00:18:16.344Z,84.96
2023-02-03T00:19:17.739Z,85.17
2023-02-03T00:20:16.287Z,85.06
2023-02-03T00:21:16.297Z,84.86
2023-02-03T00:22:16.279Z,84.55
2023-02-03T00:23:16.269Z,85.52
2023-02-03T00:24:16.256Z,85.21
2023-02-03T00:25:16.248Z,84.59
2023-02-03T00:26:16.239Z,84.90
2023-02-03T00:27:16.219Z,86.55
2023-02-03T00:28:16.317Z,86.04
2023-02-03T00:29:16.318Z,85.31
2023-02-03T00:30:16.198Z,85.00
2023-02-03T00:31:16.324Z,84.80
2023-02-03T00:32:16.352Z,85.52
2023-02-03T00:33:16.162Z,85.42
2023-02-03T00:34:16.144Z,85.11
2023-02-03T00:35:16.153Z,85.52
2023-02-03T00:36:16.132Z,85.73
2023-02-03T00:37:16.133Z,85.94
2023-02-03T00:38:16.411Z,86.76
2023-02-03T00:39:16.126Z,86.97
2023-02-03T00:40:16.082Z,86.76
2023-02-03T00:41:16.103Z,86.87
2023-02-03T00:42:16.066Z,87.07
2023-02-03T00:43:16.063Z,86.91
2023-02-03T00:44:16.044Z,86.39
2023-02-03T00:45:16.041Z,86.49
2023-02-03T00:46:16.297Z,87.12
2023-02-03T00:47:16.548Z,87.84
2023-02-03T00:48:16.024Z,87.22
2023-02-03T00:49:16.004Z,86.91
2023-02-03T00:50:15.995Z,86.25
2023-02-03T00:51:15.990Z,85.31
2023-02-03T00:52:15.969Z,85.63
2023-02-03T00:53:15.954Z,85.94
2023-02-03T00:54:15.957Z,85.63
2023-02-03T00:55:16.335Z,85.83
2023-02-03T00:56:15.923Z,84.90
2023-02-03T00:57:15.918Z,83.93
2023-02-03T00:58:16.017Z,83.26
2023-02-03T00:59:15.894Z,83.16
2023-02-03T01:00:15.901Z,82.44
2023-02-03T01:01:15.946Z,81.99
2023-02-03T01:02:15.923Z,81.88
2023-02-03T01:03:15.846Z,81.99
2023-02-03T01:04:15.855Z,81.57
2023-02-03T01:05:15.852Z,81.47
2023-02-03T01:06:15.847Z,81.37
2023-02-03T01:07:15.808Z,81.47
2023-02-03T01:08:15.800Z,81.37
2023-02-03T01:09:15.805Z,81.16
2023-02-03T01:10:15.795Z,80.81
2023-02-03T01:11:15.758Z,81.12
2023-02-03T01:12:15.777Z,81.05
2023-02-03T01:13:15.749Z,81.02
2023-02-03T01:14:15.741Z,81.02
2023-02-03T01:15:15.729Z,81.12
2023-02-03T01:16:15.865Z,81.16
2023-02-03T01:17:15.698Z,81.26
2023-02-03T01:18:15.814Z,81.26
2023-02-03T01:19:16.021Z,81.37
2023-02-03T01:20:15.680Z,80.95
2023-02-03T01:21:15.661Z,81.02
2023-02-03T01:22:15.664Z,81.12
2023-02-03T01:23:15.773Z,81.26
2023-02-03T01:24:16.249Z,80.81
2023-02-03T01:25:15.636Z,80.50
2023-02-03T01:26:15.639Z,80.60
2023-02-03T01:27:15.602Z,80.81
2023-02-03T01:28:15.687Z,80.81
2023-02-03T01:29:15.583Z,80.71
2023-02-03T01:30:15.614Z,80.81
2023-02-03T01:31:15.688Z,81.05
2023-02-03T01:32:15.563Z,80.91
2023-02-03T01:33:16.354Z,80.81
2023-02-03T01:34:15.582Z,81.02
2023-02-03T01:35:15.604Z,81.12
2023-02-03T01:36:15.525Z,81.02
2023-02-03T01:37:15.505Z,80.85
2023-02-03T01:38:15.502Z,80.81
2023-02-03T01:39:15.485Z,80.85
2023-02-03T01:40:15.481Z,80.60
2023-02-03T01:41:15.454Z,80.50
2023-02-03T01:42:15.507Z,80.71
2023-02-03T01:43:15.442Z,80.43
2023-02-03T01:44:15.449Z,80.64
2023-02-03T01:45:15.416Z,80.74
2023-02-03T01:46:15.496Z,81.05
2023-02-03T01:47:16.202Z,81.16
2023-02-03T01:48:15.407Z,81.26
2023-02-03T01:49:15.380Z,81.16
2023-02-03T01:50:15.389Z,81.05
2023-02-03T01:51:15.357Z,81.05
2023-02-03T01:52:15.362Z,80.85
2023-02-03T01:53:15.338Z,80.74
2023-02-03T01:54:15.338Z,80.74
2023-02-03T01:55:15.339Z,80.95
2023-02-03T01:56:15.534Z,81.05
2023-02-03T01:57:15.299Z,80.74
2023-02-03T01:58:15.299Z,80.74
2023-02-03T01:59:15.269Z,80.74
2023-02-03T02:00:15.268Z,80.64
2023-02-03T02:01:15.364Z,80.43
2023-02-03T02:02:15.286Z,80.40
2023-02-03T02:03:15.247Z,80.22
2023-02-03T02:04:15.231Z,79.98
2023-02-03T02:05:15.224Z,80.19
2023-02-03T02:06:15.215Z,80.19
2023-02-03T02:07:15.199Z,80.29
2023-02-03T02:08:15.204Z,80.29
2023-02-03T02:09:15.170Z,80.29
2023-02-03T02:10:15.459Z,80.64
2023-02-03T02:11:15.163Z,81.02
2023-02-03T02:12:15.152Z,81.16
2023-02-03T02:13:15.129Z,81.05
2023-02-03T02:14:15.196Z,80.74
2023-02-03T02:15:15.218Z,80.85
2023-02-03T02:16:15.189Z,80.64
2023-02-03T02:17:15.092Z,80.85
2023-02-03T02:18:15.108Z,80.85
2023-02-03T02:19:15.183Z,80.85
2023-02-03T02:20:15.075Z,80.54
2023-02-03T02:21:15.053Z,80.43
2023-02-03T02:22:15.063Z,80.74
2023-02-03T02:23:15.033Z,81.05
2023-02-03T02:24:15.024Z,80.43
2023-02-03T02:25:15.038Z,79.98
2023-02-03T02:26:15.004Z,80.29
2023-02-03T02:27:14.998Z,80.08
2023-02-03T02:28:15.499Z,80.19
2023-02-03T02:29:14.966Z,79.98
2023-02-03T02:30:14.996Z,80.29
2023-02-03T02:31:15.027Z,80.33
2023-02-03T02:32:14.953Z,80.22
2023-02-03T02:33:14.929Z,80.64
2023-02-03T02:34:14.926Z,80.43
2023-02-03T02:35:14.935Z,80.54
2023-02-03T02:36:14.916Z,80.64
2023-02-03T02:37:14.886Z,80.64
2023-02-03T02:38:15.580Z,80.74
2023-02-03T02:39:14.867Z,80.54
2023-02-03T02:40:14.873Z,80.54
2023-02-03T02:41:14.849Z,80.54
2023-02-03T02:42:14.840Z,80.54
2023-02-03T02:43:14.856Z,80.43
2023-02-03T02:44:14.837Z,80.33
2023-02-03T02:45:14.811Z,80.64
2023-02-03T02:46:14.957Z,80.85
2023-02-03T02:47:14.792Z,80.74
2023-02-03T02:48:14.807Z,80.54
2023-02-03T02:49:14.768Z,80.54
2023-02-03T02:50:14.812Z,80.43
2023-02-03T02:51:14.766Z,80.43
2023-02-03T02:52:14.741Z,80.12
2023-02-03T02:53:14.731Z,80.54
2023-02-03T02:54:14.721Z,80.74
2023-02-03T02:55:15.094Z,80.64
2023-02-03T02:56:15.689Z,80.95
2023-02-03T02:57:14.702Z,81.16
2023-02-03T02:58:14.692Z,80.95
2023-02-03T02:59:14.661Z,80.85
2023-02-03T03:00:14.671Z,80.95
2023-02-03T03:01:14.673Z,80.43
2023-02-03T03:02:14.645Z,80.12
2023-02-03T03:03:14.652Z,80.02
2023-02-03T03:04:14.623Z,79.71
2023-02-03T03:05:14.647Z,79.71
2023-02-03T03:06:14.603Z,80.02
2023-02-03T03:07:14.593Z,79.91
2023-02-03T03:08:14.587Z,79.81
2023-02-03T03:09:14.576Z,79.91
2023-02-03T03:10:14.564Z,79.91
2023-02-03T03:11:14.533Z,80.33
2023-02-03T03:12:14.566Z,80.64
2023-02-03T03:13:14.534Z,80.02
2023-02-03T03:14:14.530Z,80.22
2023-02-03T03:15:14.511Z,80.54
2023-02-03T03:16:14.576Z,81.20
2023-02-03T03:17:14.634Z,81.71
2023-02-03T03:18:14.503Z,81.92
2023-02-03T03:19:14.476Z,81.51
2023-02-03T03:20:14.467Z,81.51
2023-02-03T03:21:14.445Z,81.40
2023-02-03T03:22:14.440Z,82.13
2023-02-03T03:23:14.426Z,82.03
2023-02-03T03:24:14.434Z,81.92
2023-02-03T03:25:14.398Z,82.37
2023-02-03T03:26:14.406Z,82.37
2023-02-03T03:27:14.377Z,83.31
2023-02-03T03:28:14.819Z,83.31
2023-02-03T03:29:14.366Z,83.62
2023-02-03T03:30:14.356Z,83.93
2023-02-03T03:31:14.551Z,84.34
2023-02-03T03:32:14.428Z,84.17
2023-02-03T03:33:14.318Z,84.28
2023-02-03T03:34:14.312Z,84.07
2023-02-03T03:35:14.331Z,84.38
2023-02-03T03:36:14.298Z,84.59
2023-02-03T03:37:14.297Z,84.69
2023-02-03T03:38:14.283Z,85.00
2023-02-03T03:39:14.260Z,85.00
2023-02-03T03:40:14.283Z,85.42
2023-02-03T03:41:14.242Z,84.90
2023-02-03T03:42:14.245Z,85.00
2023-02-03T03:43:14.317Z,85.00
2023-02-03T03:44:14.227Z,85.11
2023-02-03T03:45:14.193Z,84.80
2023-02-03T03:46:14.295Z,85.00
2023-02-03T03:47:14.184Z,84.90
2023-02-03T03:48:14.189Z,85.21
2023-02-03T03:49:14.155Z,85.21
2023-02-03T03:50:14.210Z,85.31
2023-02-03T03:51:14.130Z,85.63
2023-02-03T03:52:14.149Z,85.11
2023-02-03T03:53:14.111Z,85.21
2023-02-03T03:54:14.117Z,85.11
2023-02-03T03:55:14.103Z,85.00
2023-02-03T03:56:14.148Z,85.11
2023-02-03T03:57:14.084Z,85.21
2023-02-03T03:58:14.075Z,85.94
2023-02-03T03:59:14.094Z,85.94
2023-02-03T04:00:14.056Z,86.08
2023-02-03T04:01:14.494Z,86.39
2023-02-03T04:02:14.155Z,86.49
2023-02-03T04:03:14.072Z,86.49
2023-02-03T04:04:15.748Z,86.08
2023-02-03T04:05:14.000Z,85.66
2023-02-03T04:06:13.999Z,86.29
2023-02-03T04:07:14.005Z,86.25
2023-02-03T04:08:13.968Z,85.42
2023-02-03T04:09:13.960Z,84.90
2023-02-03T04:10:13.979Z,84.28
2023-02-03T04:11:13.926Z,84.90
2023-02-03T04:12:13.946Z,84.48
2023-02-03T04:13:13.904Z,84.28
2023-02-03T04:14:13.926Z,84.17
2023-02-03T04:15:13.890Z,83.83
2023-02-03T04:16:13.925Z,83.93
2023-02-03T04:17:14.117Z,83.41
2023-02-03T04:18:13.882Z,83.41
2023-02-03T04:19:13.851Z,83.55
2023-02-03T04:20:13.858Z,83.86
2023-02-03T04:21:13.828Z,84.17
2023-02-03T04:22:13.829Z,84.48
2023-02-03T04:23:13.837Z,84.59
2023-02-03T04:24:13.820Z,85.21
2023-02-03T04:25:13.792Z,85.11
2023-02-03T04:26:13.790Z,85.42
2023-02-03T04:27:13.781Z,85.56
2023-02-03T04:28:13.917Z,85.97
2023-02-03T04:29:13.748Z,85.97
2023-02-03T04:30:13.761Z,86.08
2023-02-03T04:31:13.855Z,86.43
2023-02-03T04:32:13.730Z,86.85
2023-02-03T04:33:13.701Z,87.09
2023-02-03T04:34:13.716Z,87.51
2023-02-03T04:35:13.960Z,88.02
2023-02-03T04:36:13.692Z,88.13
2023-02-03T04:37:13.669Z,88.59
2023-02-03T04:38:13.664Z,88.69
2023-02-03T04:39:13.665Z,88.84
2023-02-03T04:40:13.652Z,88.94
2023-02-03T04:41:13.647Z,89.04
2023-02-03T04:42:13.622Z,89.15
2023-02-03T04:43:13.601Z,89.29
2023-02-03T04:44:13.604Z,89.50
2023-02-03T04:45:13.601Z,89.81
2023-02-03T04:46:13.728Z,90.02
2023-02-03T04:47:13.554Z,90.26
2023-02-03T04:48:13.589Z,90.37
2023-02-03T04:49:13.543Z,90.58
2023-02-03T04:50:13.536Z,91.10
2023-02-03T04:51:13.524Z,91.10
2023-02-03T04:52:13.527Z,91.00
2023-02-03T04:53:15.891Z,90.89
2023-02-03T04:54:13.535Z,90.79
2023-02-03T04:55:13.481Z,90.58
2023-02-03T04:56:13.478Z,91.00
2023-02-03T04:57:13.472Z,91.00
2023-02-03T04:58:13.466Z,91.00
2023-02-03T04:59:13.446Z,90.93
2023-02-03T05:00:13.436Z,90.83
2023-02-03T05:01:13.485Z,90.62
2023-02-03T05:02:13.409Z,90.62
2023-02-03T05:03:14.390Z,90.72
2023-02-03T05:04:13.415Z,90.72
2023-02-03T05:05:13.378Z,90.72
2023-02-03T05:06:13.380Z,91.08
2023-02-03T05:07:13.355Z,90.97
2023-02-03T05:08:13.347Z,90.97
2023-02-03T05:09:13.348Z,91.18
2023-02-03T05:10:13.345Z,91.50
2023-02-03T05:11:13.323Z,91.71
2023-02-03T05:12:13.646Z,91.81
2023-02-03T05:13:14.099Z,91.91
2023-02-03T05:14:13.286Z,91.81
2023-02-03T05:15:13.306Z,91.71
2023-02-03T05:16:13.327Z,91.91
2023-02-03T05:17:13.273Z,91.91
2023-02-03T05:18:13.240Z,92.12
2023-02-03T05:19:13.248Z,92.22
2023-02-03T05:20:13.232Z,92.33
2023-02-03T05:21:13.229Z,91.87
2023-02-03T05:22:13.232Z,91.25
2023-02-03T05:23:13.202Z,90.37
2023-02-03T05:24:13.203Z,89.60
2023-02-03T05:25:13.207Z,88.21
2023-02-03T05:26:13.205Z,87.59
2023-02-03T05:27:13.173Z,87.27
2023-02-03T05:28:13.204Z,86.82
2023-02-03T05:29:13.138Z,86.61
2023-02-03T05:30:13.124Z,86.72
2023-02-03T05:31:13.357Z,86.72
2023-02-03T05:32:13.149Z,86.93
2023-02-03T05:33:13.096Z,87.27
2023-02-03T05:34:13.094Z,87.27
2023-02-03T05:35:13.118Z,87.38
2023-02-03T05:36:13.066Z,87.48
2023-02-03T05:37:13.048Z,87.59
2023-02-03T05:38:13.035Z,87.59
2023-02-03T05:39:13.044Z,87.73
2023-02-03T05:40:13.023Z,87.27
2023-02-03T05:41:13.006Z,86.51
2023-02-03T05:42:12.998Z,86.09
2023-02-03T05:43:13.003Z,85.78
2023-02-03T05:44:13.103Z,85.78
2023-02-03T05:45:13.002Z,85.68
2023-02-03T05:46:13.079Z,86.24
2023-02-03T05:47:12.996Z,86.44
2023-02-03T05:48:13.185Z,86.76
2023-02-03T05:49:12.980Z,86.86
2023-02-03T05:50:12.920Z,87.11
2023-02-03T05:51:12.908Z,87.42
2023-02-03T05:52:12.986Z,87.77
2023-02-03T05:53:12.886Z,87.98
2023-02-03T05:54:13.690Z,88.23
2023-02-03T05:55:12.871Z,88.64
2023-02-03T05:56:12.862Z,88.89
2023-02-03T05:57:12.840Z,88.68
2023-02-03T05:58:13.638Z,89.56
2023-02-03T05:59:12.842Z,90.19
2023-02-03T06:00:12.817Z,90.50
2023-02-03T06:01:12.820Z,90.91
2023-02-03T06:02:12.997Z,91.06
2023-02-03T06:03:12.836Z,91.27
2023-02-03T06:04:12.854Z,91.27
2023-02-03T06:05:13.557Z,91.47
2023-02-03T06:06:12.749Z,91.58
2023-02-03T06:07:13.027Z,91.58
2023-02-03T06:08:12.723Z,92.00
2023-02-03T06:09:12.731Z,92.31
2023-02-03T06:10:12.709Z,92.27
2023-02-03T06:11:13.498Z,91.85
2023-02-03T06:12:13.493Z,91.33
2023-02-03T06:13:12.683Z,91.02
2023-02-03T06:14:12.657Z,90.77
2023-02-03T06:15:12.658Z,90.77
2023-02-03T06:16:13.474Z,90.35
2023-02-03T06:17:12.741Z,89.94
2023-02-03T06:18:12.624Z,89.83
2023-02-03T06:19:14.549Z,89.83
2023-02-03T06:20:12.601Z,90.19
2023-02-03T06:21:12.613Z,90.29
2023-02-03T06:22:13.392Z,90.29
2023-02-03T06:23:12.592Z,90.39
2023-02-03T06:24:12.560Z,90.50
2023-02-03T06:25:13.272Z,90.75
2023-02-03T06:26:12.574Z,90.75
2023-02-03T06:27:12.553Z,90.85
2023-02-03T06:28:12.629Z,91.16
2023-02-03T06:29:12.544Z,91.27
2023-02-03T06:30:12.507Z,91.37
2023-02-03T06:31:12.630Z,91.37
2023-02-03T06:32:12.490Z,91.52
2023-02-03T06:33:12.473Z,91.72
2023-02-03T06:34:12.466Z,92.03
2023-02-03T06:35:12.507Z,92.35
2023-02-03T06:36:12.440Z,92.14
2023-02-03T06:37:12.453Z,92.03
2023-02-03T06:38:12.418Z,91.87
2023-02-03T06:39:12.418Z,92.40
2023-02-03T06:40:12.404Z,92.91
2023-02-03T06:41:12.385Z,92.91
2023-02-03T06:42:12.374Z,92.81
2023-02-03T06:43:12.369Z,92.85
2023-02-03T06:44:12.357Z,92.75
2023-02-03T06:45:12.356Z,92.65
2023-02-03T06:46:12.360Z,92.79
2023-02-03T06:47:12.325Z,93.52
2023-02-03T06:48:12.311Z,93.94
2023-02-03T06:49:12.429Z,94.57
2023-02-03T06:50:12.307Z,94.50
2023-02-03T06:51:12.306Z,94.61
2023-02-03T06:52:12.257Z,94.71
2023-02-03T06:53:12.290Z,95.13
2023-02-03T06:54:12.250Z,95.13
2023-02-03T06:55:12.252Z,94.92
2023-02-03T06:56:12.239Z,94.92
2023-02-03T06:57:12.241Z,94.92
2023-02-03T06:58:12.211Z,94.98
2023-02-03T06:59:12.210Z,94.31
2023-02-03T07:00:25.997Z,91.78
2023-02-03T07:01:13.254Z,87.40
2023-02-03T07:02:12.223Z,85.49
2023-02-03T07:03:12.192Z,85.13
2023-02-03T07:04:12.178Z,84.16
2023-02-03T07:05:12.158Z,84.05
2023-02-03T07:06:12.149Z,82.32
2023-02-03T07:07:12.371Z,80.41
2023-02-03T07:08:12.107Z,80.10
2023-02-03T07:09:12.116Z,80.21
2023-02-03T07:10:12.880Z,80.41
2023-02-03T07:11:12.115Z,80.66
2023-02-03T07:12:12.064Z,81.18
2023-02-03T07:13:12.062Z,81.84
2023-02-03T07:14:12.056Z,82.60
2023-02-03T07:15:12.040Z,82.81
2023-02-03T07:16:12.132Z,83.12
2023-02-03T07:17:12.030Z,83.43
2023-02-03T07:18:14.996Z,83.89
2023-02-03T07:19:13.001Z,84.09
2023-02-03T07:20:11.990Z,84.65
2023-02-03T07:21:11.981Z,85.06
2023-02-03T07:22:11.961Z,85.73
2023-02-03T07:23:11.963Z,86.15
2023-02-03T07:24:12.041Z,86.77
2023-02-03T07:25:11.944Z,87.33
2023-02-03T07:26:11.927Z,87.65
2023-02-03T07:27:11.932Z,87.75
2023-02-03T07:28:12.010Z,87.85
2023-02-03T07:29:11.910Z,88.06
2023-02-03T07:30:12.054Z,88.48
2023-02-03T07:31:11.954Z,88.17
2023-02-03T07:32:11.929Z,87.65
2023-02-03T07:33:11.854Z,87.29
2023-02-03T07:34:11.845Z,87.08
2023-02-03T07:35:11.824Z,86.52
2023-02-03T07:36:11.814Z,85.34
2023-02-03T07:37:11.810Z,84.58
2023-02-03T07:38:11.796Z,83.33
2023-02-03T07:39:11.799Z,82.98
2023-02-03T07:40:11.774Z,82.46
2023-02-03T07:41:11.765Z,81.80
2023-02-03T07:42:11.746Z,81.38
2023-02-03T07:43:11.751Z,80.83
2023-02-03T07:44:11.744Z,80.10
2023-02-03T07:45:11.763Z,80.27
2023-02-03T07:46:11.788Z,79.65
2023-02-03T07:47:12.706Z,78.61
2023-02-03T07:48:11.693Z,78.37
2023-02-03T07:49:11.687Z,78.64
2023-02-03T07:50:11.689Z,78.12
2023-02-03T07:51:11.669Z,78.02
2023-02-03T07:52:11.671Z,77.81
2023-02-03T07:53:11.637Z,76.74
2023-02-03T07:54:11.632Z,76.53
2023-02-03T07:55:11.627Z,77.05
2023-02-03T07:56:11.615Z,77.12
2023-02-03T07:57:11.611Z,76.40
2023-02-03T07:58:11.588Z,75.98
2023-02-03T07:59:11.581Z,75.88
2023-02-03T08:00:11.737Z,76.29
2023-02-03T08:01:11.563Z,75.95
2023-02-03T08:02:11.544Z,75.63
2023-02-03T08:03:11.556Z,74.77
2023-02-03T08:04:11.553Z,74.46
2023-02-03T08:05:11.581Z,74.77
2023-02-03T08:06:11.497Z,75.70
2023-02-03T08:07:12.292Z,75.09
2023-02-03T08:08:11.494Z,73.74
2023-02-03T08:09:11.481Z,74.36
2023-02-03T08:10:11.913Z,74.12
2023-02-03T08:11:11.490Z,73.91
2023-02-03T08:12:11.466Z,73.91
2023-02-03T08:13:11.442Z,73.91
2023-02-03T08:14:11.414Z,74.02
2023-02-03T08:15:11.426Z,74.15
2023-02-03T08:16:11.532Z,74.84
2023-02-03T08:17:11.393Z,74.05
2023-02-03T08:18:11.381Z,74.36
2023-02-03T08:19:11.379Z,74.46
2023-02-03T08:20:11.398Z,74.74
2023-02-03T08:21:11.361Z,74.53
2023-02-03T08:22:11.343Z,75.26
2023-02-03T08:23:11.374Z,75.05
2023-02-03T08:24:11.359Z,75.05
2023-02-03T08:25:11.305Z,75.15
2023-02-03T08:26:11.295Z,74.74
2023-02-03T08:27:11.403Z,74.43
2023-02-03T08:28:11.328Z,73.88
2023-02-03T08:29:11.285Z,74.05
2023-02-03T08:30:11.250Z,73.85
2023-02-03T08:31:11.519Z,73.64
2023-02-03T08:32:11.649Z,73.64
2023-02-03T08:33:11.243Z,73.12
2023-02-03T08:34:11.215Z,73.64
2023-02-03T08:35:11.217Z,74.36
2023-02-03T08:36:11.214Z,74.15
2023-02-03T08:37:11.256Z,74.77
2023-02-03T08:38:11.167Z,75.15
2023-02-03T08:39:11.177Z,73.91
2023-02-03T08:40:11.964Z,72.85
2023-02-03T08:41:11.162Z,72.44
2023-02-03T08:42:11.126Z,72.33
2023-02-03T08:43:11.137Z,72.95
2023-02-03T08:44:11.925Z,72.95
2023-02-03T08:45:11.098Z,73.22
2023-02-03T08:46:11.217Z,72.67
2023-02-03T08:47:11.212Z,72.44
2023-02-03T08:48:11.082Z,72.33
2023-02-03T08:49:11.079Z,73.16
2023-02-03T08:50:11.066Z,72.54
2023-02-03T08:51:11.040Z,72.96
2023-02-03T08:52:11.031Z,73.47
2023-02-03T08:53:11.031Z,72.96
2023-02-03T08:54:11.811Z,72.96
2023-02-03T08:55:11.010Z,73.16
2023-02-03T08:56:10.984Z,73.36
2023-02-03T08:57:10.979Z,72.85
2023-02-03T08:58:10.970Z,73.47
2023-02-03T08:59:10.960Z,72.03
2023-02-03T09:00:11.037Z,72.23
2023-02-03T09:01:11.082Z,72.75
2023-02-03T09:02:10.926Z,73.91
2023-02-03T09:03:10.915Z,73.77
2023-02-03T09:04:10.893Z,75.22
2023-02-03T09:05:10.969Z,75.43
2023-02-03T09:06:10.878Z,76.08
2023-02-03T09:07:11.534Z,76.87
2023-02-03T09:08:10.852Z,75.15
2023-02-03T09:09:10.854Z,73.91
2023-02-03T09:10:10.837Z,74.53
2023-02-03T09:11:10.831Z,75.87
2023-02-03T09:12:10.832Z,72.95
2023-02-03T09:13:10.825Z,72.33
2023-02-03T09:14:10.786Z,73.16
2023-02-03T09:15:10.819Z,73.22
2023-02-03T09:16:10.883Z,72.58
2023-02-03T09:17:10.779Z,70.51
2023-02-03T09:18:10.757Z,72.33
2023-02-03T09:19:10.767Z,73.50
2023-02-03T09:20:10.814Z,72.27
2023-02-03T09:21:13.882Z,71.44
2023-02-03T09:22:11.773Z,70.28
2023-02-03T09:23:10.719Z,69.31
2023-02-03T09:24:10.687Z,68.98
2023-02-03T09:25:10.681Z,68.02
2023-02-03T09:26:10.658Z,68.40
2023-02-03T09:27:10.674Z,67.92
2023-02-03T09:28:10.685Z,65.94
2023-02-03T09:29:10.630Z,64.09
2023-02-03T09:30:11.588Z,64.09
2023-02-03T09:31:10.817Z,64.67
2023-02-03T09:32:10.811Z,64.26
2023-02-03T09:33:10.590Z,63.10
2023-02-03T09:34:10.632Z,61.26
2023-02-03T09:35:10.572Z,62.08
2023-02-03T09:36:10.569Z,61.36
2023-02-03T09:37:10.568Z,60.23
2023-02-03T09:38:10.553Z,59.31
2023-02-03T09:39:10.535Z,60.57
2023-02-03T09:40:10.536Z,60.05
2023-02-03T09:41:11.902Z,61.46
2023-02-03T09:42:10.504Z,59.69
2023-02-03T09:43:10.512Z,60.51
2023-02-03T09:44:10.492Z,59.80
2023-02-03T09:45:10.479Z,60.17
2023-02-03T09:46:10.529Z,60.38
2023-02-03T09:47:10.469Z,59.84
2023-02-03T09:48:10.449Z,59.84
2023-02-03T09:49:11.117Z,59.53
2023-02-03T09:50:10.424Z,59.94
2023-02-03T09:51:10.431Z,60.15
2023-02-03T09:52:10.408Z,59.02
2023-02-03T09:53:10.386Z,59.23
2023-02-03T09:54:11.189Z,58.81
2023-02-03T09:55:10.399Z,59.50
2023-02-03T09:56:10.363Z,59.61
2023-02-03T09:57:10.440Z,60.53
2023-02-03T09:58:10.355Z,59.50
2023-02-03T09:59:10.318Z,57.87
2023-02-03T10:00:10.327Z,58.30
2023-02-03T10:01:10.361Z,58.51
2023-02-03T10:02:10.367Z,59.81
2023-02-03T10:03:10.410Z,58.40
2023-02-03T10:04:10.270Z,58.81
2023-02-03T10:05:10.262Z,60.05
2023-02-03T10:06:10.273Z,58.56
2023-02-03T10:07:10.240Z,59.72
2023-02-03T10:08:10.235Z,60.23
2023-02-03T10:09:10.229Z,59.95
2023-02-03T10:10:10.248Z,61.36
2023-02-03T10:11:10.192Z,61.54
2023-02-03T10:12:10.464Z,60.79
2023-02-03T10:13:10.190Z,60.05
2023-02-03T10:14:10.183Z,59.12
2023-02-03T10:15:10.145Z,59.81
2023-02-03T10:16:10.644Z,58.51
2023-02-03T10:17:11.037Z,58.61
2023-02-03T10:18:10.122Z,58.92
2023-02-03T10:19:10.151Z,58.51
2023-02-03T10:20:10.460Z,58.95
2023-02-03T10:21:10.898Z,58.95
2023-02-03T10:22:10.092Z,58.79
2023-02-03T10:23:10.064Z,58.58
2023-02-03T10:24:10.380Z,57.18
2023-02-03T10:25:10.063Z,58.23
2023-02-03T10:26:10.050Z,58.40
2023-02-03T10:27:10.228Z,59.09
2023-02-03T10:28:10.070Z,58.17
2023-02-03T10:29:10.014Z,58.25
2023-02-03T10:30:10.001Z,58.43
2023-02-03T10:31:10.162Z,56.35
2023-02-03T10:32:10.186Z,56.05
2023-02-03T10:33:09.957Z,56.43
2023-02-03T10:34:09.958Z,56.07
2023-02-03T10:35:09.947Z,55.36
2023-02-03T10:36:09.957Z,54.54
2023-02-03T10:37:09.945Z,56.66
2023-02-03T10:38:09.936Z,55.69
2023-02-03T10:39:09.893Z,53.44
2023-02-03T10:40:09.910Z,53.27
2023-02-03T10:41:10.012Z,54.11
2023-02-03T10:42:09.887Z,54.44
2023-02-03T10:43:09.943Z,55.13
2023-02-03T10:44:09.871Z,53.98
2023-02-03T10:45:09.841Z,53.57
2023-02-03T10:46:09.868Z,53.98
2023-02-03T10:47:09.812Z,53.96
2023-02-03T10:48:10.041Z,52.62
2023-02-03T10:49:10.741Z,53.57
2023-02-03T10:50:09.792Z,55.10
2023-02-03T10:51:09.791Z,53.57
2023-02-03T10:52:09.831Z,54.26
2023-02-03T10:53:09.805Z,53.67
2023-02-03T10:54:09.814Z,53.08
2023-02-03T10:55:10.482Z,53.67
2023-02-03T10:56:09.726Z,53.80
2023-02-03T10:57:09.706Z,54.26
2023-02-03T10:58:10.529Z,54.80
2023-02-03T10:59:09.678Z,55.43
2023-02-03T11:00:09.684Z,55.74
2023-02-03T11:01:09.732Z,55.33
2023-02-03T11:02:09.667Z,55.94
2023-02-03T11:03:09.636Z,55.74
2023-02-03T11:04:09.653Z,55.94
2023-02-03T11:05:09.619Z,56.48
2023-02-03T11:06:09.618Z,56.51
2023-02-03T11:07:09.629Z,57.74
2023-02-03T11:08:09.618Z,57.76
2023-02-03T11:09:09.587Z,57.94
2023-02-03T11:10:09.581Z,57.74
2023-02-03T11:11:09.568Z,57.76
2023-02-03T11:12:09.577Z,57.87
2023-02-03T11:13:09.540Z,58.25
2023-02-03T11:14:09.567Z,57.84
2023-02-03T11:15:09.540Z,57.74
2023-02-03T11:16:10.394Z,56.99
2023-02-03T11:17:09.520Z,57.12
2023-02-03T11:18:09.491Z,58.35
2023-02-03T11:19:09.471Z,58.25
2023-02-03T11:20:09.751Z,58.45
2023-02-03T11:21:09.452Z,57.64
2023-02-03T11:22:09.445Z,59.33
2023-02-03T11:23:09.443Z,60.05
2023-02-03T11:24:09.433Z,58.58
2023-02-03T11:25:09.471Z,58.94
2023-02-03T11:26:10.367Z,57.40
2023-02-03T11:27:09.422Z,56.66
2023-02-03T11:28:09.480Z,58.09
2023-02-03T11:29:09.376Z,57.02
2023-02-03T11:30:09.380Z,56.04
2023-02-03T11:31:09.444Z,55.36
2023-02-03T11:32:09.403Z,56.38
2023-02-03T11:33:09.328Z,56.48
2023-02-03T11:34:09.329Z,55.69
2023-02-03T11:35:09.298Z,56.27
2023-02-03T11:36:10.078Z,55.00
2023-02-03T11:37:09.289Z,53.83
2023-02-03T11:38:09.298Z,53.31
2023-02-03T11:39:09.271Z,53.11
2023-02-03T11:40:09.259Z,54.36
2023-02-03T11:41:09.243Z,54.87
2023-02-03T11:42:09.244Z,53.44
2023-02-03T11:43:09.219Z,53.98
2023-02-03T11:44:09.543Z,54.87
2023-02-03T11:45:09.202Z,55.10
2023-02-03T11:46:09.239Z,54.54
2023-02-03T11:47:09.181Z,56.04
2023-02-03T11:48:09.972Z,55.97
2023-02-03T11:49:09.161Z,55.91
2023-02-03T11:50:09.171Z,55.82
2023-02-03T11:51:09.154Z,55.41
2023-02-03T11:52:09.949Z,54.90
2023-02-03T11:53:09.133Z,54.16
2023-02-03T11:54:09.105Z,53.52
2023-02-03T11:55:09.094Z,53.80
2023-02-03T11:56:09.261Z,53.27
2023-02-03T11:57:09.167Z,54.11
2023-02-03T11:58:09.276Z,54.33
2023-02-03T11:59:09.048Z,53.42
2023-02-03T12:00:09.066Z,54.57
2023-02-03T12:01:09.053Z,54.61
2023-02-03T12:02:09.806Z,54.82
2023-02-03T12:03:09.073Z,54.95
2023-02-03T12:04:09.045Z,54.95
2023-02-03T12:05:08.982Z,55.66
2023-02-03T12:06:08.995Z,56.17
2023-02-03T12:07:08.960Z,56.17
2023-02-03T12:08:08.971Z,56.66
2023-02-03T12:09:08.962Z,55.61
2023-02-03T12:10:08.929Z,54.67
2023-02-03T12:11:09.099Z,54.13
2023-02-03T12:12:08.923Z,53.92
2023-02-03T12:13:09.001Z,54.16
2023-02-03T12:14:08.895Z,52.30
2023-02-03T12:15:09.346Z,51.61
2023-02-03T12:16:08.929Z,52.27
2023-02-03T12:17:08.872Z,54.39
2023-02-03T12:18:08.854Z,54.33
2023-02-03T12:19:08.895Z,57.04
2023-02-03T12:20:09.636Z,56.46
2023-02-03T12:21:08.824Z,57.68
2023-02-03T12:22:08.814Z,58.50
2023-02-03T12:23:08.815Z,56.94
2023-02-03T12:24:08.795Z,56.66
2023-02-03T12:25:09.584Z,57.48
2023-02-03T12:26:08.765Z,56.97
2023-02-03T12:27:08.772Z,57.71
2023-02-03T12:28:08.771Z,58.25
2023-02-03T12:29:09.524Z,58.86
2023-02-03T12:30:08.727Z,58.02
2023-02-03T12:31:08.837Z,57.51
2023-02-03T12:32:08.772Z,57.74
2023-02-03T12:33:08.689Z,58.07
2023-02-03T12:34:08.860Z,58.48
2023-02-03T12:35:08.676Z,58.48
2023-02-03T12:36:08.666Z,59.30
2023-02-03T12:37:08.656Z,58.89
2023-02-03T12:38:08.744Z,58.92
2023-02-03T12:39:08.621Z,59.74
2023-02-03T12:40:08.629Z,59.12
2023-02-03T12:41:08.634Z,59.94
2023-02-03T12:42:08.607Z,59.00
2023-02-03T12:43:08.862Z,59.41
2023-02-03T12:44:08.589Z,59.89
2023-02-03T12:45:08.561Z,58.79
2023-02-03T12:46:09.200Z,59.61
2023-02-03T12:47:08.548Z,60.60
2023-02-03T12:48:08.544Z,60.60
2023-02-03T12:49:09.339Z,60.60
2023-02-03T12:50:08.517Z,60.71
2023-02-03T12:51:08.502Z,61.22
2023-02-03T12:52:09.467Z,59.48